createdAt,value
2022-12-17T00:01:17.195Z,44.07
2022-12-17T00:04:07.434Z,49.90
2022-12-17T00:06:57.618Z,55.67
2022-12-17T00:09:50.406Z,47.28
2022-12-17T00:12:40.471Z,45.70
2022-12-17T00:15:30.466Z,45.83
2022-12-17T00:18:22.321Z,41.63
2022-12-17T00:21:17.773Z,44.17
2022-12-17T00:24:08.073Z,41.60
2022-12-17T00:26:57.966Z,45.08
2022-12-17T00:29:47.978Z,55.78
2022-12-17T00:32:37.947Z,45.58
2022-12-17T00:35:27.803Z,50.97
2022-12-17T00:38:17.652Z,47.90
2022-12-17T00:41:11.682Z,43.97
2022-12-17T00:44:01.555Z,43.70
2022-12-17T00:46:51.783Z,38.38
2022-12-17T00:49:41.763Z,42.80
2022-12-17T00:52:31.823Z,50.03
2022-12-17T00:55:22.645Z,46.08
2022-12-17T00:58:14.135Z,41.72
2022-12-17T01:01:04.134Z,47.00
2022-12-17T01:03:53.956Z,46.90
2022-12-17T01:06:43.925Z,45.75
2022-12-17T01:09:33.946Z,46.15
2022-12-17T01:12:23.955Z,49.70
2022-12-17T01:15:13.831Z,44.08
2022-12-17T01:18:03.650Z,40.38
2022-12-17T01:20:53.499Z,45.42
2022-12-17T01:23:43.600Z,41.42
2022-12-17T01:26:33.534Z,47.42
2022-12-17T01:29:23.736Z,39.13
2022-12-17T01:32:13.563Z,44.22
2022-12-17T01:35:03.475Z,41.55
2022-12-17T01:37:53.315Z,47.70
2022-12-17T01:40:43.345Z,45.83
2022-12-17T01:43:50.628Z,41.20
2022-12-17T01:46:42.444Z,43.30
2022-12-17T01:49:32.664Z,41.97
2022-12-17T01:52:22.687Z,42.05
2022-12-17T01:55:13.025Z,42.40
2022-12-17T01:58:03.333Z,41.88
2022-12-17T02:00:53.242Z,38.10
2022-12-17T02:03:43.222Z,36.80
2022-12-17T02:06:45.038Z,43.72
2022-12-17T02:09:47.701Z,39.85
2022-12-17T02:13:00.043Z,36.70
2022-12-17T02:20:01.831Z,40.33
2022-12-17T02:23:01.182Z,38.63
2022-12-17T02:26:14.567Z,46.45
2022-12-17T02:29:08.130Z,39.40
2022-12-17T02:32:01.069Z,40.65
2022-12-17T02:34:51.046Z,36.90
2022-12-17T02:37:41.125Z,35.85
2022-12-17T02:40:31.136Z,42.67
2022-12-17T02:43:21.269Z,43.25
2022-12-17T02:46:15.145Z,35.05
2022-12-17T02:49:04.810Z,36.00
2022-12-17T02:51:58.161Z,40.30
2022-12-17T02:54:49.078Z,40.78
2022-12-17T02:57:43.610Z,36.60
2022-12-17T03:00:45.134Z,32.35
2022-12-17T03:03:35.875Z,37.72
2022-12-17T03:06:25.898Z,36.28
2022-12-17T03:09:15.599Z,36.03
2022-12-17T03:12:05.354Z,32.35
2022-12-17T03:14:55.193Z,33.97
2022-12-17T03:17:45.203Z,40.33
2022-12-17T03:20:35.199Z,37.08
2022-12-17T03:23:27.749Z,38.45
2022-12-17T03:26:18.984Z,32.90
2022-12-17T03:29:08.909Z,42.45
2022-12-17T03:31:58.882Z,40.53
2022-12-17T03:34:49.052Z,33.10
2022-12-17T03:37:39.126Z,37.03
2022-12-17T03:40:29.304Z,35.15
2022-12-17T03:43:27.776Z,34.22
2022-12-17T03:46:17.610Z,35.25
2022-12-17T03:49:07.915Z,32.80
2022-12-17T03:51:57.909Z,32.88
2022-12-17T03:54:48.179Z,33.47
2022-12-17T03:57:38.274Z,29.98
2022-12-17T04:00:28.755Z,34.90
2022-12-17T04:03:18.453Z,33.72
2022-12-17T04:06:08.369Z,28.23
2022-12-17T04:08:58.131Z,39.53
2022-12-17T04:11:48.192Z,30.58
2022-12-17T04:14:38.239Z,36.20
2022-12-17T04:17:39.035Z,38.55
2022-12-17T04:20:29.577Z,35.60
2022-12-17T04:23:19.211Z,36.53
2022-12-17T04:26:09.045Z,29.88
2022-12-17T04:28:58.919Z,34.30
2022-12-17T04:31:49.012Z,38.00
2022-12-17T04:34:39.062Z,28.35
2022-12-17T04:37:29.344Z,34.33
2022-12-17T04:40:19.175Z,29.60
2022-12-17T04:43:08.954Z,33.38
2022-12-17T04:45:58.701Z,30.58
2022-12-17T04:48:48.838Z,36.13
2022-12-17T04:51:38.931Z,30.23
2022-12-17T04:54:29.057Z,29.08
2022-12-17T04:57:19.104Z,37.80
2022-12-17T05:00:09.032Z,32.20
2022-12-17T05:02:58.999Z,32.35
2022-12-17T05:05:48.850Z,35.35
2022-12-17T05:08:41.575Z,29.67
2022-12-17T05:11:48.183Z,29.00
2022-12-17T05:14:38.021Z,29.17
2022-12-17T05:17:27.901Z,34.90
2022-12-17T05:20:17.833Z,28.65
2022-12-17T05:23:12.128Z,31.02
2022-12-17T05:26:02.145Z,32.20
2022-12-17T05:28:52.319Z,28.33
2022-12-17T05:31:42.304Z,36.63
2022-12-17T05:34:32.249Z,34.28
2022-12-17T05:37:22.048Z,30.50
2022-12-17T05:40:12.799Z,37.13
2022-12-17T05:43:14.036Z,30.63
2022-12-17T05:46:04.870Z,32.67
2022-12-17T05:48:55.573Z,26.85
2022-12-17T05:51:45.639Z,29.90
2022-12-17T05:54:35.936Z,33.65
2022-12-17T05:57:26.178Z,31.58
2022-12-17T06:00:15.980Z,32.47
2022-12-17T06:03:05.787Z,29.15
2022-12-17T06:05:55.563Z,38.47
2022-12-17T06:08:45.585Z,31.20
2022-12-17T06:11:35.683Z,31.63
2022-12-17T06:14:25.747Z,27.95
2022-12-17T06:17:15.544Z,28.60
2022-12-17T06:20:05.385Z,35.53
2022-12-17T06:22:55.157Z,30.98
2022-12-17T06:25:45.257Z,29.55
2022-12-17T06:28:35.316Z,30.30
2022-12-17T06:31:25.177Z,30.15
2022-12-17T06:34:15.620Z,26.80
2022-12-17T06:37:05.580Z,25.50
2022-12-17T06:39:55.345Z,27.65
2022-12-17T06:42:45.394Z,26.27
2022-12-17T06:45:35.501Z,29.35
2022-12-17T06:48:27.550Z,25.50
2022-12-17T06:51:17.297Z,23.95
2022-12-17T06:54:06.931Z,28.30
2022-12-17T06:56:56.651Z,24.05
2022-12-17T06:59:46.831Z,21.98
2022-12-17T07:02:37.090Z,25.70
2022-12-17T07:05:27.635Z,25.15
2022-12-17T07:08:18.827Z,27.23
2022-12-17T07:11:08.716Z,25.98
2022-12-17T07:13:58.546Z,27.33
2022-12-17T07:16:48.588Z,28.45
2022-12-17T07:19:38.751Z,18.98
2022-12-17T07:22:28.826Z,27.67
2022-12-17T07:25:18.615Z,28.02
2022-12-17T07:28:13.004Z,27.75
2022-12-17T07:31:02.685Z,24.80
2022-12-17T07:33:52.728Z,29.30
2022-12-17T07:36:42.801Z,20.40
2022-12-17T07:39:32.916Z,27.05
2022-12-17T07:42:23.080Z,24.13
2022-12-17T07:45:12.896Z,26.33
2022-12-17T07:48:10.321Z,26.70
2022-12-17T07:51:00.114Z,22.52
2022-12-17T07:53:50.285Z,31.02
2022-12-17T07:56:40.422Z,28.25
2022-12-17T07:59:30.466Z,27.65
2022-12-17T08:02:20.309Z,28.58
2022-12-17T08:05:10.171Z,24.92
2022-12-17T08:07:59.928Z,27.35
2022-12-17T08:10:50.015Z,35.03
2022-12-17T08:13:40.125Z,30.60
2022-12-17T08:16:30.401Z,32.90
2022-12-17T08:19:20.548Z,28.60
2022-12-17T08:22:10.666Z,30.95
2022-12-17T08:25:00.683Z,28.80
2022-12-17T08:27:50.718Z,31.42
2022-12-17T08:30:40.862Z,34.20
2022-12-17T08:33:31.040Z,33.10
2022-12-17T08:36:20.852Z,34.28
2022-12-17T08:39:10.857Z,47.83
2022-12-17T08:42:04.285Z,56.75
2022-12-17T08:44:54.609Z,54.35
2022-12-17T08:47:47.268Z,51.42
2022-12-17T08:50:37.243Z,42.03
2022-12-17T08:53:31.922Z,33.67
2022-12-17T08:59:15.360Z,30.50
2022-12-17T09:02:05.503Z,37.30
2022-12-17T09:04:55.761Z,35.78
2022-12-17T09:07:45.802Z,30.52
2022-12-17T09:10:35.770Z,37.45
2022-12-17T09:13:25.698Z,33.65
2022-12-17T09:16:15.493Z,33.72
2022-12-17T09:19:05.455Z,35.45
2022-12-17T09:21:55.369Z,38.58
2022-12-17T09:24:45.348Z,32.13
2022-12-17T09:27:35.423Z,34.85
2022-12-17T09:30:25.993Z,38.80
2022-12-17T09:33:16.156Z,34.85
2022-12-17T09:36:05.929Z,40.80
2022-12-17T09:39:15.471Z,28.50
2022-12-17T09:42:16.200Z,31.50
2022-12-17T09:45:22.173Z,34.88
2022-12-17T09:48:44.154Z,36.90
2022-12-17T09:51:45.376Z,39.55
2022-12-17T09:54:41.595Z,40.78
2022-12-17T09:57:36.871Z,37.47
2022-12-17T10:00:44.996Z,39.45
2022-12-17T10:03:42.174Z,31.33
2022-12-17T10:06:38.674Z,34.75
2022-12-17T10:09:32.898Z,38.65
2022-12-17T10:12:35.153Z,38.88
2022-12-17T10:15:26.640Z,36.55
2022-12-17T10:18:23.849Z,37.75
2022-12-17T10:21:17.352Z,38.92
2022-12-17T10:24:07.042Z,35.88
2022-12-17T10:26:57.373Z,37.93
2022-12-17T10:29:50.088Z,43.23
2022-12-17T10:32:44.771Z,59.90
2022-12-17T10:35:43.981Z,47.67
2022-12-17T10:38:47.702Z,37.10
2022-12-17T10:41:50.449Z,30.77
2022-12-17T10:44:53.824Z,35.80
2022-12-17T10:47:45.984Z,36.17
2022-12-17T10:50:42.570Z,33.20
2022-12-17T10:53:41.437Z,37.00
2022-12-17T10:56:45.357Z,31.00
2022-12-17T10:59:55.293Z,37.33
2022-12-17T11:02:48.549Z,37.17
2022-12-17T11:05:59.242Z,34.87
2022-12-17T11:08:50.485Z,35.20
2022-12-17T11:11:44.131Z,31.13
2022-12-17T11:14:33.992Z,36.93
2022-12-17T11:17:29.690Z,37.30
2022-12-17T11:20:25.119Z,34.30
2022-12-17T11:23:18.026Z,34.47
2022-12-17T11:26:28.719Z,35.33
2022-12-17T11:29:19.289Z,33.43
2022-12-17T11:32:22.161Z,33.73
2022-12-17T11:35:24.410Z,35.13
2022-12-17T11:38:22.823Z,37.67
2022-12-17T11:41:26.792Z,72.53
2022-12-17T11:44:54.654Z,42.50
2022-12-17T11:48:08.630Z,39.70
2022-12-17T11:51:19.167Z,34.83
2022-12-17T11:54:22.988Z,33.03
2022-12-17T11:57:31.349Z,32.30
2022-12-17T12:00:34.177Z,38.57
2022-12-17T12:03:54.277Z,31.00
2022-12-17T12:07:18.984Z,30.27
2022-12-17T12:10:18.857Z,30.70
2022-12-17T12:13:38.709Z,32.53
2022-12-17T12:16:43.678Z,35.77
2022-12-17T12:19:45.527Z,35.17
2022-12-17T12:22:38.727Z,28.90
2022-12-17T12:25:52.060Z,30.30
2022-12-17T12:29:08.047Z,29.83
2022-12-17T12:32:37.274Z,28.30
2022-12-17T12:35:35.647Z,33.23
2022-12-17T12:38:37.870Z,30.37
2022-12-17T12:41:45.265Z,32.30
2022-12-17T12:44:49.885Z,28.60
2022-12-17T12:48:13.862Z,30.93
2022-12-17T12:51:14.775Z,30.93
2022-12-17T12:54:16.242Z,28.60
2022-12-17T12:57:05.947Z,29.60
2022-12-17T12:59:58.868Z,25.60
2022-12-17T13:02:50.932Z,23.77
2022-12-17T13:05:33.576Z,29.73
2022-12-17T13:08:07.925Z,26.17
2022-12-17T13:10:40.431Z,26.80
2022-12-17T13:13:17.927Z,26.53
2022-12-17T13:15:55.804Z,24.50
2022-12-17T13:18:36.969Z,23.63
2022-12-17T13:21:14.378Z,29.07
2022-12-17T13:23:45.640Z,29.03
2022-12-17T13:26:21.727Z,25.33
2022-12-17T13:28:56.066Z,28.50
2022-12-17T13:31:32.083Z,23.87
2022-12-17T13:34:49.159Z,21.52
2022-12-17T13:37:31.747Z,25.47
2022-12-17T13:40:40.639Z,27.93
2022-12-17T13:43:21.368Z,27.30
2022-12-17T13:45:55.644Z,23.17
2022-12-17T13:48:30.264Z,24.57
2022-12-17T13:51:04.721Z,26.07
2022-12-17T13:53:38.154Z,25.30
2022-12-17T13:56:10.405Z,21.40
2022-12-17T13:58:42.736Z,28.20
2022-12-17T14:01:14.477Z,25.50
2022-12-17T14:04:08.073Z,22.37
2022-12-17T14:06:39.577Z,25.43
2022-12-17T14:09:17.324Z,24.67
2022-12-17T14:12:08.071Z,27.93
2022-12-17T14:14:42.876Z,41.33
2022-12-17T14:17:26.312Z,39.23
2022-12-17T14:20:02.219Z,35.80
2022-12-17T14:22:37.751Z,46.30
2022-12-17T14:25:18.174Z,33.15
2022-12-17T14:27:55.812Z,35.37
2022-12-17T14:30:32.969Z,27.53
2022-12-17T14:33:24.069Z,32.23
2022-12-17T14:36:23.504Z,27.77
2022-12-17T14:38:57.583Z,26.77
2022-12-17T14:41:55.746Z,30.47
2022-12-17T14:44:29.840Z,24.23
2022-12-17T14:47:15.714Z,23.50
2022-12-17T14:50:00.458Z,20.93
2022-12-17T14:52:40.142Z,25.13
2022-12-17T14:55:34.677Z,23.67
2022-12-17T14:58:16.224Z,24.10
2022-12-17T15:01:06.789Z,23.30
2022-12-17T15:03:48.361Z,24.10
2022-12-17T15:06:20.404Z,24.67
2022-12-17T15:08:53.192Z,24.70
2022-12-17T15:11:25.112Z,23.80
2022-12-17T15:13:56.976Z,24.40
2022-12-17T15:16:28.445Z,25.17
2022-12-17T15:19:01.030Z,30.30
2022-12-17T15:21:32.692Z,24.93
2022-12-17T15:24:04.279Z,21.93
2022-12-17T15:26:35.534Z,24.93
2022-12-17T15:29:06.852Z,30.33
2022-12-17T15:31:38.279Z,35.73
2022-12-17T15:34:12.293Z,33.77
2022-12-17T15:36:43.692Z,27.80
2022-12-17T15:39:14.948Z,25.67
2022-12-17T15:42:04.724Z,29.20
2022-12-17T15:44:36.097Z,27.50
2022-12-17T15:47:07.435Z,21.80
2022-12-17T15:49:38.868Z,23.93
2022-12-17T15:52:10.974Z,23.50
2022-12-17T15:54:42.766Z,27.73
2022-12-17T15:57:18.331Z,26.07
2022-12-17T15:59:53.036Z,23.00
2022-12-17T16:02:24.394Z,31.23
2022-12-17T16:04:55.793Z,34.97
2022-12-17T16:07:27.074Z,27.90
2022-12-17T16:10:04.519Z,25.03
2022-12-17T16:12:36.833Z,25.27
2022-12-17T16:15:09.922Z,31.63
2022-12-17T16:17:41.311Z,48.93
2022-12-17T16:20:12.679Z,36.77
2022-12-17T16:22:44.342Z,39.10
2022-12-17T16:25:15.909Z,36.13
2022-12-17T16:27:47.293Z,36.03
2022-12-17T16:30:18.794Z,29.20
2022-12-17T16:32:50.173Z,28.23
2022-12-17T16:35:23.617Z,29.30
2022-12-17T16:37:54.894Z,30.02
2022-12-17T16:40:26.153Z,36.13
2022-12-17T16:42:57.460Z,43.53
2022-12-17T16:45:28.745Z,35.63
2022-12-17T16:48:00.079Z,37.35
2022-12-17T16:50:31.456Z,28.40
2022-12-17T16:53:02.787Z,24.05
2022-12-17T16:55:40.449Z,32.00
2022-12-17T16:58:13.254Z,28.33
2022-12-17T17:00:46.433Z,33.78
2022-12-17T17:03:17.940Z,30.63
2022-12-17T17:05:49.367Z,31.90
2022-12-17T17:08:20.715Z,26.20
2022-12-17T17:10:52.101Z,26.73
2022-12-17T17:13:23.344Z,34.10
2022-12-17T17:15:54.665Z,34.53
2022-12-17T17:18:28.932Z,29.02
2022-12-17T17:21:18.870Z,32.63
2022-12-17T17:23:57.240Z,32.80
2022-12-17T17:26:31.728Z,35.05
2022-12-17T17:29:04.518Z,40.20
2022-12-17T17:32:08.413Z,44.10
2022-12-17T17:34:28.088Z,27.90
2022-12-17T17:36:59.408Z,26.65
2022-12-17T17:39:33.007Z,29.13
2022-12-17T17:42:04.708Z,35.38
2022-12-17T17:44:37.124Z,34.25
2022-12-17T17:47:08.437Z,35.42
2022-12-17T17:49:39.968Z,31.58
2022-12-17T17:52:12.032Z,26.85
2022-12-17T17:54:43.656Z,26.40
2022-12-17T17:57:15.015Z,33.08
2022-12-17T17:59:46.490Z,24.67
2022-12-17T18:02:17.928Z,28.65
2022-12-17T18:04:49.391Z,27.20
2022-12-17T18:07:25.573Z,34.80
2022-12-17T18:09:59.598Z,28.65
2022-12-17T18:12:49.454Z,29.63
2022-12-17T18:15:20.795Z,30.05
2022-12-17T18:17:52.320Z,23.20
2022-12-17T18:20:23.686Z,33.10
2022-12-17T18:22:54.965Z,39.35
2022-12-17T18:25:26.318Z,35.83
2022-12-17T18:27:57.627Z,40.03
2022-12-17T18:30:28.888Z,31.45
2022-12-17T18:33:00.136Z,31.27
2022-12-17T18:35:31.397Z,26.90
2022-12-17T18:38:02.724Z,25.77
2022-12-17T18:40:35.471Z,29.85
2022-12-17T18:43:24.244Z,32.75
2022-12-17T18:45:55.699Z,33.70
2022-12-17T18:48:29.248Z,23.65
2022-12-17T18:51:06.750Z,27.73
2022-12-17T18:53:38.002Z,30.13
2022-12-17T18:56:10.307Z,33.15
2022-12-17T18:58:42.647Z,33.60
2022-12-17T19:01:26.546Z,34.30
2022-12-17T19:04:02.204Z,33.75
2022-12-17T19:06:35.228Z,41.97
2022-12-17T19:09:07.912Z,36.35
2022-12-17T19:11:43.538Z,32.47
2022-12-17T19:14:17.098Z,28.70
2022-12-17T19:16:49.947Z,30.15
2022-12-17T19:19:22.208Z,25.08
2022-12-17T19:21:55.075Z,27.38
2022-12-17T19:24:26.402Z,31.42
2022-12-17T19:26:57.784Z,29.00
2022-12-17T19:29:29.171Z,32.40
2022-12-17T19:32:00.625Z,24.77
2022-12-17T19:34:32.340Z,27.00
2022-12-17T19:37:04.599Z,30.02
2022-12-17T19:39:35.924Z,28.35
2022-12-17T19:42:24.179Z,25.13
2022-12-17T19:44:55.503Z,23.83
2022-12-17T19:47:28.809Z,26.27
2022-12-17T19:50:00.144Z,22.75
2022-12-17T19:52:31.471Z,24.27
2022-12-17T19:55:02.980Z,24.83
2022-12-17T19:57:34.637Z,26.35
2022-12-17T20:00:06.555Z,25.23
2022-12-17T20:02:37.934Z,19.25
2022-12-17T20:05:09.489Z,23.50
2022-12-17T20:07:40.948Z,19.13
2022-12-17T20:10:12.303Z,26.50
2022-12-17T20:12:44.437Z,15.63
2022-12-17T20:15:15.846Z,21.58
2022-12-17T20:17:47.103Z,21.60
2022-12-17T20:20:18.377Z,20.70
2022-12-17T20:22:49.717Z,21.88
2022-12-17T20:25:21.169Z,25.17
2022-12-17T20:27:52.481Z,19.75
2022-12-17T20:30:23.762Z,20.60
2022-12-17T20:32:55.011Z,21.77
2022-12-17T20:35:29.360Z,16.88
2022-12-17T20:38:00.632Z,22.77
2022-12-17T20:40:31.894Z,24.02
2022-12-17T20:43:03.768Z,31.40
2022-12-17T20:45:35.526Z,29.27
2022-12-17T20:48:06.938Z,20.60
2022-12-17T20:50:40.819Z,24.88
2022-12-17T20:53:12.189Z,18.38
2022-12-17T20:55:43.567Z,19.70
2022-12-17T20:58:15.585Z,15.45
2022-12-17T21:00:46.862Z,19.98
2022-12-17T21:03:18.231Z,22.25
2022-12-17T21:05:49.504Z,23.08
2022-12-17T21:08:20.870Z,43.28
2022-12-17T21:10:56.302Z,57.13
2022-12-17T21:13:30.694Z,41.40
2022-12-17T21:16:05.254Z,30.13
2022-12-17T21:18:37.068Z,51.30
2022-12-17T21:21:12.090Z,24.23
2022-12-17T21:23:45.115Z,15.93
2022-12-17T21:26:27.049Z,20.45
2022-12-17T21:28:59.676Z,21.10
2022-12-17T21:31:37.940Z,24.40
2022-12-17T21:34:21.412Z,20.15
2022-12-17T21:36:52.861Z,20.05
2022-12-17T21:39:24.152Z,18.65
2022-12-17T21:42:13.985Z,14.98
2022-12-17T21:44:48.120Z,16.90
2022-12-17T21:47:19.669Z,17.85
2022-12-17T21:49:50.970Z,16.45
2022-12-17T21:52:22.299Z,21.10
2022-12-17T21:54:53.569Z,15.80
2022-12-17T21:57:24.853Z,21.10
2022-12-17T21:59:56.242Z,20.05
2022-12-17T22:02:27.766Z,18.50
2022-12-17T22:04:59.227Z,19.45
2022-12-17T22:07:36.173Z,16.30
2022-12-17T22:10:47.343Z,18.83
2022-12-17T22:13:24.628Z,17.30
2022-12-17T22:15:56.080Z,20.92
2022-12-17T22:18:27.384Z,21.45
2022-12-17T22:21:00.482Z,14.32
2022-12-17T22:23:32.799Z,16.75
2022-12-17T22:26:09.073Z,19.13
2022-12-17T22:28:40.759Z,18.15
2022-12-17T22:31:31.216Z,15.38
2022-12-17T22:35:11.907Z,14.80
2022-12-17T22:41:27.967Z,12.57
2022-12-17T22:44:10.259Z,19.50
2022-12-17T22:44:36.966Z,17.08
2022-12-17T22:45:49.086Z,14.23
2022-12-17T22:48:20.513Z,18.25
2022-12-17T22:51:03.931Z,18.40
2022-12-17T22:53:43.666Z,18.98
2022-12-17T22:56:25.102Z,13.82
2022-12-17T22:59:06.986Z,12.43
2022-12-17T23:01:38.303Z,20.88
2022-12-17T23:04:12.647Z,16.08
2022-12-17T23:06:45.682Z,16.00
2022-12-17T23:09:19.227Z,19.08
2022-12-17T23:11:50.873Z,17.52
2022-12-17T23:14:22.175Z,19.27
2022-12-17T23:16:53.496Z,15.52
2022-12-17T23:19:24.995Z,16.73
2022-12-17T23:21:56.257Z,17.25
2022-12-17T23:24:27.513Z,14.98
2022-12-17T23:26:58.850Z,17.83
2022-12-17T23:29:30.175Z,14.35
2022-12-17T23:32:02.846Z,16.35
2022-12-17T23:34:34.099Z,14.70
2022-12-17T23:37:05.357Z,17.45
2022-12-17T23:39:36.724Z,17.80
2022-12-17T23:42:08.051Z,16.25
2022-12-17T23:44:39.307Z,18.88
2022-12-17T23:47:10.802Z,16.75
2022-12-17T23:49:42.065Z,16.40
2022-12-17T23:52:13.414Z,17.73
2022-12-17T23:54:44.659Z,12.40
2022-12-17T23:57:15.930Z,18.90
2022-12-17T23:59:47.192Z,16.70
